createdAt,value
2019-04-06T00:01:07.560Z,9.07
2019-04-06T00:03:38.568Z,8.97
2019-04-06T00:06:09.787Z,9.11
2019-04-06T00:08:40.796Z,8.85
2019-04-06T00:11:12.133Z,9.04
2019-04-06T00:13:43.277Z,8.80
2019-04-06T00:16:14.394Z,8.94
2019-04-06T00:18:45.555Z,8.75
2019-04-06T00:21:16.826Z,8.81
2019-04-06T00:23:47.954Z,8.96
2019-04-06T00:26:19.077Z,9.03
2019-04-06T00:28:50.155Z,9.06
2019-04-06T00:31:55.435Z,9.06
2019-04-06T00:34:26.572Z,8.94
2019-04-06T00:36:57.620Z,9.19
2019-04-06T00:39:28.631Z,9.08
2019-04-06T00:41:59.634Z,9.10
2019-04-06T00:44:31.627Z,8.85
2019-04-06T00:47:02.721Z,9.00
2019-04-06T00:49:33.857Z,9.13
2019-04-06T00:52:05.007Z,8.98
2019-04-06T00:54:36.018Z,9.05
2019-04-06T00:57:07.123Z,8.94
2019-04-06T00:59:38.121Z,8.78
2019-04-06T01:02:09.760Z,8.91
2019-04-06T01:04:40.765Z,8.96
2019-04-06T01:07:11.805Z,9.00
2019-04-06T01:09:42.804Z,9.09
2019-04-06T01:12:13.989Z,8.96
2019-04-06T01:14:44.967Z,9.01
2019-04-06T01:17:16.008Z,8.93
2019-04-06T01:19:47.100Z,8.87
2019-04-06T01:22:18.165Z,8.62
2019-04-06T01:24:49.406Z,8.72
2019-04-06T01:27:20.500Z,8.36
2019-04-06T01:29:51.547Z,8.66
2019-04-06T01:32:22.796Z,8.65
2019-04-06T01:34:53.784Z,8.69
2019-04-06T01:37:24.873Z,8.76
2019-04-06T01:39:56.019Z,8.79
2019-04-06T01:42:27.036Z,8.79
2019-04-06T01:44:58.165Z,8.78
2019-04-06T01:47:29.167Z,8.67
2019-04-06T01:50:00.240Z,8.49
2019-04-06T01:52:31.283Z,8.57
2019-04-06T01:55:02.365Z,8.46
2019-04-06T01:57:33.594Z,8.64
2019-04-06T02:00:06.413Z,8.70
2019-04-06T02:02:39.331Z,8.73
2019-04-06T02:05:10.843Z,8.64
2019-04-06T02:07:41.882Z,8.52
2019-04-06T02:10:13.610Z,8.61
2019-04-06T02:12:44.608Z,8.70
2019-04-06T02:15:16.323Z,8.80
2019-04-06T02:17:47.369Z,8.79
2019-04-06T02:20:18.413Z,8.83
2019-04-06T02:22:49.459Z,8.64
2019-04-06T02:25:20.619Z,8.63
2019-04-06T02:27:51.664Z,8.64
2019-04-06T02:30:30.136Z,8.58
2019-04-06T02:33:19.051Z,8.69
2019-04-06T02:35:55.252Z,8.64
2019-04-06T02:38:43.481Z,8.60
2019-04-06T02:41:36.499Z,8.68
2019-04-06T02:44:08.660Z,8.71
2019-04-06T02:46:39.736Z,8.78
2019-04-06T02:49:10.813Z,8.68
2019-04-06T02:51:41.845Z,8.79
2019-04-06T02:54:13.022Z,8.72
2019-04-06T02:56:47.386Z,8.75
2019-04-06T02:59:17.150Z,8.80
2019-04-06T03:01:48.258Z,8.84
2019-04-06T03:04:19.270Z,8.87
2019-04-06T03:06:50.329Z,8.90
2019-04-06T03:09:21.401Z,8.83
2019-04-06T03:11:52.469Z,8.80
2019-04-06T03:14:23.613Z,8.77
2019-04-06T03:16:54.619Z,8.85
2019-04-06T03:19:25.681Z,8.85
2019-04-06T03:21:56.630Z,8.70
2019-04-06T03:24:27.735Z,8.55
2019-04-06T03:27:02.134Z,8.65
2019-04-06T03:29:31.495Z,8.42
2019-04-06T03:32:04.054Z,8.57
2019-04-06T03:34:35.299Z,8.60
2019-04-06T03:37:06.432Z,8.54
2019-04-06T03:39:37.474Z,8.65
2019-04-06T03:42:10.787Z,8.74
2019-04-06T03:44:41.287Z,8.71
2019-04-06T03:47:12.337Z,8.85
2019-04-06T03:49:43.368Z,8.57
2019-04-06T03:52:15.447Z,8.48
2019-04-06T03:54:46.479Z,8.67
2019-04-06T03:57:17.667Z,8.79
2019-04-06T03:59:48.715Z,8.86
2019-04-06T04:02:19.718Z,8.86
2019-04-06T04:04:50.833Z,8.91
2019-04-06T04:07:21.987Z,8.91
2019-04-06T04:09:53.016Z,9.00
2019-04-06T04:12:24.003Z,8.83
2019-04-06T04:14:55.014Z,8.97
2019-04-06T04:17:26.139Z,8.93
2019-04-06T04:19:57.180Z,8.97
2019-04-06T04:22:28.260Z,8.94
2019-04-06T04:24:59.393Z,8.95
2019-04-06T04:27:31.102Z,8.96
2019-04-06T04:30:02.270Z,8.68
2019-04-06T04:32:33.329Z,8.79
2019-04-06T04:35:04.537Z,8.73
2019-04-06T04:37:35.530Z,8.92
2019-04-06T04:40:07.000Z,8.80
2019-04-06T04:42:38.093Z,8.71
2019-04-06T04:45:09.256Z,8.60
2019-04-06T04:47:40.324Z,8.74
2019-04-06T04:50:11.494Z,8.69
2019-04-06T04:52:42.511Z,8.81
2019-04-06T04:55:13.726Z,8.83
2019-04-06T04:57:45.595Z,8.76
2019-04-06T05:00:17.037Z,8.82
2019-04-06T05:02:48.116Z,8.93
2019-04-06T05:05:19.238Z,8.80
2019-04-06T05:07:50.260Z,8.82
2019-04-06T05:10:21.303Z,9.03
2019-04-06T05:12:52.309Z,9.16
2019-04-06T05:15:46.721Z,8.97
2019-04-06T05:18:17.941Z,9.03
2019-04-06T05:20:49.108Z,9.17
2019-04-06T05:23:20.300Z,9.11
2019-04-06T05:25:51.432Z,9.00
2019-04-06T05:28:22.869Z,8.86
2019-04-06T05:30:53.879Z,9.26
2019-04-06T05:33:26.867Z,8.96
2019-04-06T05:35:58.703Z,9.08
2019-04-06T05:38:29.848Z,9.22
2019-04-06T05:41:01.255Z,9.14
2019-04-06T05:43:32.568Z,9.18
2019-04-06T05:46:03.633Z,9.16
2019-04-06T05:48:36.848Z,9.18
2019-04-06T05:51:07.644Z,8.73
2019-04-06T05:53:38.840Z,9.06
2019-04-06T05:56:10.352Z,8.91
2019-04-06T05:58:44.231Z,9.11
2019-04-06T06:01:14.619Z,9.19
2019-04-06T06:03:45.641Z,9.19
2019-04-06T06:06:16.793Z,9.27
2019-04-06T06:08:47.951Z,9.31
2019-04-06T06:11:19.065Z,8.89
2019-04-06T06:13:50.092Z,8.82
2019-04-06T06:16:21.108Z,8.74
2019-04-06T06:18:52.139Z,9.10
2019-04-06T06:21:23.190Z,9.23
2019-04-06T06:23:54.339Z,9.16
2019-04-06T06:26:25.363Z,9.30
2019-04-06T06:28:56.382Z,9.37
2019-04-06T06:31:27.392Z,9.56
2019-04-06T06:33:58.665Z,9.18
2019-04-06T06:36:30.033Z,9.43
2019-04-06T06:39:01.219Z,8.83
2019-04-06T06:41:33.925Z,8.71
2019-04-06T06:44:05.286Z,8.65
2019-04-06T06:46:36.338Z,8.23
2019-04-06T06:49:07.536Z,8.69
2019-04-06T06:51:38.503Z,8.78
2019-04-06T06:54:09.742Z,9.00
2019-04-06T06:56:40.874Z,8.72
2019-04-06T06:59:12.046Z,8.99
2019-04-06T07:01:43.057Z,9.29
2019-04-06T07:04:14.052Z,9.43
2019-04-06T07:06:45.044Z,9.37
2019-04-06T07:09:16.400Z,9.42
2019-04-06T07:11:47.467Z,9.60
2019-04-06T07:14:18.644Z,9.43
2019-04-06T07:16:49.588Z,9.29
2019-04-06T07:19:20.715Z,9.35
2019-04-06T07:21:51.875Z,9.65
2019-04-06T07:24:22.974Z,9.43
2019-04-06T07:26:54.176Z,9.65
2019-04-06T07:29:25.150Z,9.48
2019-04-06T07:31:56.152Z,9.35
2019-04-06T07:34:27.281Z,9.58
2019-04-06T07:36:58.353Z,9.29
2019-04-06T07:39:29.369Z,8.90
2019-04-06T07:42:00.379Z,9.27
2019-04-06T07:44:31.384Z,8.98
2019-04-06T07:47:02.768Z,9.35
2019-04-06T07:49:34.040Z,9.83
2019-04-06T07:52:05.204Z,9.95
2019-04-06T07:54:36.683Z,9.82
2019-04-06T07:57:07.817Z,9.93
2019-04-06T07:59:40.681Z,10.11
2019-04-06T08:02:12.368Z,9.80
2019-04-06T08:04:44.592Z,9.63
2019-04-06T08:07:15.751Z,9.91
2019-04-06T08:09:46.901Z,10.31
2019-04-06T08:12:18.086Z,10.33
2019-04-06T08:14:49.174Z,9.95
2019-04-06T08:17:20.164Z,10.32
2019-04-06T08:19:51.267Z,10.52
2019-04-06T08:22:22.306Z,10.61
2019-04-06T08:24:53.576Z,10.76
2019-04-06T08:27:24.762Z,10.18
2019-04-06T08:29:55.842Z,10.40
2019-04-06T08:32:26.867Z,10.40
2019-04-06T08:34:57.943Z,10.49
2019-04-06T08:37:29.101Z,10.50
2019-04-06T08:40:00.216Z,10.88
2019-04-06T08:42:31.236Z,10.83
2019-04-06T08:45:02.277Z,10.96
2019-04-06T08:47:33.422Z,11.07
2019-04-06T08:50:05.501Z,10.69
2019-04-06T08:52:36.742Z,10.71
2019-04-06T08:55:07.828Z,10.51
2019-04-06T08:57:39.085Z,10.75
2019-04-06T09:00:11.119Z,10.86
2019-04-06T09:02:42.186Z,10.81
2019-04-06T09:05:13.781Z,10.97
2019-04-06T09:07:44.932Z,11.07
2019-04-06T09:10:16.408Z,10.79
2019-04-06T09:12:47.586Z,10.79
2019-04-06T09:15:19.467Z,11.11
2019-04-06T09:17:50.718Z,11.17
2019-04-06T09:20:22.319Z,11.63
2019-04-06T09:22:53.389Z,11.37
2019-04-06T09:25:24.742Z,11.73
2019-04-06T09:27:56.959Z,11.91
2019-04-06T09:30:27.995Z,11.89
2019-04-06T09:32:59.041Z,11.46
2019-04-06T09:35:30.302Z,11.17
2019-04-06T09:38:01.299Z,11.22
2019-04-06T09:40:32.747Z,11.40
2019-04-06T09:43:06.427Z,11.74
2019-04-06T09:46:02.606Z,11.54
2019-04-06T09:48:43.624Z,11.91
2019-04-06T09:51:39.749Z,11.71
2019-04-06T09:54:24.501Z,12.06
2019-04-06T09:57:13.358Z,11.87
2019-04-06T10:00:08.884Z,12.06
2019-04-06T10:02:59.253Z,12.50
2019-04-06T10:05:49.205Z,12.26
2019-04-06T10:08:40.623Z,12.41
2019-04-06T10:11:36.737Z,12.36
2019-04-06T10:14:25.528Z,12.58
2019-04-06T10:17:19.416Z,12.74
2019-04-06T10:20:05.162Z,12.34
2019-04-06T10:22:42.447Z,12.65
2019-04-06T10:25:31.047Z,12.65
2019-04-06T10:28:15.742Z,12.77
2019-04-06T10:31:04.606Z,12.80
2019-04-06T10:34:00.788Z,12.83
2019-04-06T10:36:57.086Z,12.80
2019-04-06T10:39:34.050Z,13.08
2019-04-06T10:42:12.411Z,13.23
2019-04-06T10:45:01.713Z,13.16
2019-04-06T10:47:52.039Z,13.01
2019-04-06T10:50:48.297Z,13.32
2019-04-06T10:53:40.090Z,13.21
2019-04-06T10:56:28.641Z,13.24
2019-04-06T10:59:18.602Z,13.31
2019-04-06T11:02:10.912Z,13.38
2019-04-06T11:04:49.959Z,13.30
2019-04-06T11:07:53.075Z,13.32
2019-04-06T11:10:47.312Z,13.24
2019-04-06T11:13:39.645Z,13.14
2019-04-06T11:16:18.281Z,13.27
2019-04-06T11:19:07.308Z,13.28
2019-04-06T11:21:57.512Z,13.39
2019-04-06T11:24:50.777Z,13.27
2019-04-06T11:27:47.270Z,13.18
2019-04-06T11:30:46.990Z,13.41
2019-04-06T11:33:36.591Z,13.29
2019-04-06T11:36:14.828Z,13.56
2019-04-06T11:38:56.645Z,13.58
2019-04-06T11:41:55.036Z,13.67
2019-04-06T11:45:01.099Z,13.45
2019-04-06T11:47:50.476Z,13.57
2019-04-06T11:50:58.901Z,13.40
2019-04-06T11:53:35.270Z,13.50
2019-04-06T11:56:25.434Z,13.56
2019-04-06T11:59:04.897Z,13.65
2019-04-06T12:01:57.337Z,13.73
2019-04-06T12:05:05.651Z,13.55
2019-04-06T12:07:44.361Z,13.71
2019-04-06T12:10:34.544Z,13.64
2019-04-06T12:13:17.140Z,13.68
2019-04-06T12:16:10.099Z,13.67
2019-04-06T12:18:49.376Z,13.70
2019-04-06T12:21:45.583Z,13.68
2019-04-06T12:24:31.144Z,13.68
2019-04-06T12:27:16.259Z,13.69
2019-04-06T12:30:06.320Z,13.88
2019-04-06T12:32:53.528Z,13.97
2019-04-06T12:35:58.871Z,14.08
2019-04-06T12:38:43.048Z,14.16
2019-04-06T12:41:26.485Z,14.20
2019-04-06T12:44:15.077Z,14.27
2019-04-06T12:47:03.551Z,14.39
2019-04-06T12:49:49.383Z,14.52
2019-04-06T12:52:28.572Z,14.56
2019-04-06T12:55:24.450Z,14.55
2019-04-06T12:58:14.444Z,14.48
2019-04-06T13:01:06.752Z,14.44
2019-04-06T13:03:52.231Z,14.63
2019-04-06T13:06:45.321Z,14.61
2019-04-06T13:09:41.372Z,14.68
2019-04-06T13:12:34.473Z,14.73
2019-04-06T13:15:15.320Z,14.88
2019-04-06T13:17:56.117Z,14.85
2019-04-06T13:20:38.120Z,14.92
2019-04-06T13:23:23.278Z,14.80
2019-04-06T13:26:02.221Z,14.75
2019-04-06T13:28:43.178Z,14.69
2019-04-06T13:31:22.325Z,14.61
2019-04-06T13:34:15.611Z,14.61
2019-04-06T13:37:05.535Z,14.54
2019-04-06T13:39:52.128Z,14.60
2019-04-06T13:42:53.912Z,14.65
2019-04-06T13:45:36.374Z,14.64
2019-04-06T13:48:27.704Z,14.67
2019-04-06T13:51:08.156Z,14.93
2019-04-06T13:54:03.416Z,15.10
2019-04-06T13:56:57.321Z,15.07
2019-04-06T13:59:39.101Z,15.14
2019-04-06T14:02:38.203Z,15.07
2019-04-06T14:05:19.130Z,14.92
2019-04-06T14:08:09.078Z,15.04
2019-04-06T14:11:08.224Z,15.21
2019-04-06T14:14:00.085Z,15.21
2019-04-06T14:16:40.889Z,15.16
2019-04-06T14:19:32.348Z,15.15
2019-04-06T14:22:19.939Z,15.17
2019-04-06T14:25:19.133Z,15.13
2019-04-06T14:27:57.115Z,15.14
2019-04-06T14:30:44.827Z,15.02
2019-04-06T14:33:49.813Z,15.04
2019-04-06T14:36:48.972Z,15.20
2019-04-06T14:39:38.417Z,15.20
2019-04-06T14:42:23.125Z,15.14
2019-04-06T14:45:21.117Z,15.23
2019-04-06T14:48:09.871Z,15.27
2019-04-06T14:51:06.337Z,15.35
2019-04-06T14:53:50.966Z,15.19
2019-04-06T14:56:38.356Z,15.18
2019-04-06T14:59:18.362Z,15.28
2019-04-06T15:02:08.561Z,15.23
2019-04-06T15:04:57.770Z,15.28
2019-04-06T15:07:37.961Z,15.20
2019-04-06T15:10:27.595Z,15.33
2019-04-06T15:13:16.422Z,15.33
2019-04-06T15:16:06.318Z,15.20
2019-04-06T15:18:49.584Z,15.20
2019-04-06T15:21:45.536Z,15.22
2019-04-06T15:24:28.102Z,15.20
2019-04-06T15:27:24.421Z,15.21
2019-04-06T15:30:19.986Z,15.04
2019-04-06T15:33:10.020Z,15.08
2019-04-06T15:35:58.134Z,15.13
2019-04-06T15:38:51.297Z,15.03
2019-04-06T15:41:55.374Z,15.05
2019-04-06T15:44:43.318Z,14.85
2019-04-06T15:47:32.174Z,14.90
2019-04-06T15:50:12.328Z,14.90
2019-04-06T15:53:16.164Z,14.81
2019-04-06T15:56:05.212Z,14.83
2019-04-06T15:58:44.564Z,14.83
2019-04-06T16:01:29.093Z,14.95
2019-04-06T16:04:25.115Z,14.83
2019-04-06T16:07:32.537Z,14.86
2019-04-06T16:10:09.991Z,14.64
2019-04-06T16:12:50.747Z,14.70
2019-04-06T16:15:43.864Z,14.64
2019-04-06T16:18:32.704Z,14.71
2019-04-06T16:21:38.856Z,14.69
2019-04-06T16:24:35.393Z,14.86
2019-04-06T16:27:24.339Z,14.62
2019-04-06T16:30:18.751Z,14.60
2019-04-06T16:33:00.173Z,14.49
2019-04-06T16:36:02.481Z,14.47
2019-04-06T16:39:00.009Z,14.53
2019-04-06T16:42:01.864Z,14.45
2019-04-06T16:44:39.116Z,14.40
2019-04-06T16:47:21.484Z,14.45
2019-04-06T16:50:18.099Z,14.46
2019-04-06T16:53:06.941Z,14.43
2019-04-06T16:55:47.446Z,14.53
2019-04-06T16:58:55.908Z,14.45
2019-04-06T17:01:35.245Z,14.40
2019-04-06T17:04:31.692Z,14.36
2019-04-06T17:07:20.674Z,14.35
2019-04-06T17:10:15.123Z,14.32
2019-04-06T17:12:59.381Z,14.22
2019-04-06T17:15:44.940Z,14.37
2019-04-06T17:18:23.670Z,14.20
2019-04-06T17:21:17.032Z,14.32
2019-04-06T17:23:57.375Z,14.15
2019-04-06T17:26:51.143Z,14.13
2019-04-06T17:29:29.352Z,13.96
2019-04-06T17:32:36.919Z,14.01
2019-04-06T17:35:22.134Z,14.09
2019-04-06T17:38:16.927Z,13.98
2019-04-06T17:40:56.870Z,14.03
2019-04-06T17:44:05.917Z,13.88
2019-04-06T17:47:05.285Z,13.84
2019-04-06T17:49:51.616Z,13.90
2019-04-06T17:52:45.369Z,13.67
2019-04-06T17:55:35.993Z,13.78
2019-04-06T17:58:23.223Z,13.73
2019-04-06T18:01:15.280Z,13.72
2019-04-06T18:04:06.609Z,13.55
2019-04-06T18:07:05.336Z,13.73
2019-04-06T18:09:45.038Z,13.52
2019-04-06T18:12:29.165Z,13.69
2019-04-06T18:15:00.936Z,13.68
2019-04-06T18:17:32.907Z,13.72
2019-04-06T18:20:05.375Z,13.82
2019-04-06T18:22:36.721Z,13.77
2019-04-06T18:25:08.467Z,13.62
2019-04-06T18:27:39.976Z,13.78
2019-04-06T18:30:11.758Z,13.55
2019-04-06T18:33:00.629Z,13.49
2019-04-06T18:35:29.133Z,13.58
2019-04-06T18:38:14.737Z,13.41
2019-04-06T18:40:47.469Z,13.59
2019-04-06T18:43:18.648Z,13.23
2019-04-06T18:45:49.793Z,13.43
2019-04-06T18:48:21.019Z,13.55
2019-04-06T18:50:52.901Z,13.62
2019-04-06T18:53:24.540Z,13.56
2019-04-06T18:55:57.545Z,13.41
2019-04-06T18:58:29.082Z,13.42
2019-04-06T19:01:00.928Z,13.40
2019-04-06T19:03:33.087Z,13.32
2019-04-06T19:06:04.808Z,13.20
2019-04-06T19:08:36.564Z,13.37
2019-04-06T19:11:10.704Z,13.41
2019-04-06T19:13:42.242Z,13.44
2019-04-06T19:16:14.586Z,13.49
2019-04-06T19:18:46.678Z,13.65
2019-04-06T19:21:18.750Z,13.36
2019-04-06T19:23:51.351Z,13.52
2019-04-06T19:26:23.105Z,13.32
2019-04-06T19:28:55.368Z,13.43
2019-04-06T19:31:27.286Z,13.26
2019-04-06T19:33:58.863Z,13.17
2019-04-06T19:36:30.277Z,13.23
2019-04-06T19:39:01.398Z,13.01
2019-04-06T19:41:34.145Z,13.23
2019-04-06T19:44:06.326Z,13.00
2019-04-06T19:46:37.797Z,12.72
2019-04-06T19:49:09.661Z,13.05
2019-04-06T19:51:41.248Z,12.83
2019-04-06T19:54:12.365Z,13.00
2019-04-06T19:56:44.029Z,13.07
2019-04-06T19:59:15.150Z,12.76
2019-04-06T20:01:46.354Z,12.88
2019-04-06T20:04:17.431Z,12.70
2019-04-06T20:06:48.852Z,12.85
2019-04-06T20:09:20.036Z,12.69
2019-04-06T20:11:52.564Z,12.76
2019-04-06T20:14:23.945Z,12.86
2019-04-06T20:16:55.252Z,12.80
2019-04-06T20:19:26.400Z,12.85
2019-04-06T20:21:57.818Z,12.80
2019-04-06T20:24:29.956Z,12.82
2019-04-06T20:27:01.520Z,12.67
2019-04-06T20:29:32.930Z,12.63
2019-04-06T20:32:06.782Z,12.60
2019-04-06T20:34:37.972Z,12.70
2019-04-06T20:37:09.442Z,12.42
2019-04-06T20:39:40.977Z,12.52
2019-04-06T20:42:12.049Z,12.69
2019-04-06T20:44:43.564Z,12.66
2019-04-06T20:47:14.794Z,12.81
2019-04-06T20:49:46.323Z,12.38
2019-04-06T20:52:17.557Z,12.59
2019-04-06T20:54:48.756Z,12.60
2019-04-06T20:57:21.842Z,12.23
2019-04-06T20:59:53.786Z,12.62
2019-04-06T21:02:25.546Z,12.64
2019-04-06T21:04:56.969Z,12.53
2019-04-06T21:07:28.556Z,12.68
2019-04-06T21:09:59.859Z,12.48
2019-04-06T21:12:31.152Z,12.27
2019-04-06T21:15:15.012Z,12.65
2019-04-06T21:17:38.762Z,12.43
2019-04-06T21:20:10.695Z,12.63
2019-04-06T21:22:41.968Z,12.71
2019-04-06T21:25:13.552Z,12.45
2019-04-06T21:27:46.321Z,12.54
2019-04-06T21:30:19.437Z,12.57
2019-04-06T21:32:51.446Z,12.41
2019-04-06T21:35:22.758Z,12.39
2019-04-06T21:37:54.876Z,12.29
2019-04-06T21:40:26.203Z,12.40
2019-04-06T21:42:57.703Z,12.15
2019-04-06T21:45:29.025Z,12.10
2019-04-06T21:48:00.504Z,12.05
2019-04-06T21:50:32.025Z,12.05
2019-04-06T21:53:03.703Z,12.07
2019-04-06T21:55:34.877Z,12.03
2019-04-06T21:58:05.967Z,12.04
2019-04-06T22:00:49.860Z,12.03
2019-04-06T22:03:22.227Z,12.08
2019-04-06T22:05:53.706Z,12.04
2019-04-06T22:08:24.973Z,12.04
2019-04-06T22:10:56.472Z,11.52
2019-04-06T22:13:28.390Z,11.35
2019-04-06T22:15:59.783Z,11.39
2019-04-06T22:18:31.184Z,11.56
2019-04-06T22:21:02.445Z,11.72
2019-04-06T22:23:41.012Z,11.22
2019-04-06T22:26:07.184Z,11.31
2019-04-06T22:28:38.391Z,11.36
2019-04-06T22:31:09.937Z,11.34
2019-04-06T22:33:41.999Z,11.22
2019-04-06T22:36:13.011Z,11.16
2019-04-06T22:38:44.346Z,11.42
2019-04-06T22:41:15.753Z,11.70
2019-04-06T22:43:46.868Z,11.23
2019-04-06T22:46:18.522Z,10.87
2019-04-06T22:48:49.905Z,11.48
2019-04-06T22:51:21.006Z,11.63
2019-04-06T22:53:54.582Z,10.98
2019-04-06T22:56:28.038Z,11.31
2019-04-06T22:59:00.683Z,11.69
2019-04-06T23:01:33.473Z,11.11
2019-04-06T23:04:17.666Z,11.17
2019-04-06T23:07:01.169Z,11.10
2019-04-06T23:09:32.724Z,11.38
2019-04-06T23:12:05.219Z,11.39
2019-04-06T23:14:36.776Z,11.28
2019-04-06T23:17:07.953Z,11.40
2019-04-06T23:19:40.627Z,10.81
2019-04-06T23:22:11.749Z,11.28
2019-04-06T23:24:45.531Z,11.55
2019-04-06T23:27:16.632Z,11.29
2019-04-06T23:29:47.766Z,11.42
2019-04-06T23:32:18.841Z,11.34
2019-04-06T23:34:58.780Z,10.76
2019-04-06T23:37:23.203Z,10.50
2019-04-06T23:39:54.949Z,10.82
2019-04-06T23:42:26.242Z,10.93
2019-04-06T23:44:57.754Z,10.80
2019-04-06T23:47:29.671Z,10.93
2019-04-06T23:50:00.997Z,10.50
2019-04-06T23:52:32.129Z,10.27
2019-04-06T23:55:03.715Z,10.60
2019-04-06T23:57:34.926Z,10.33
